sensor_id;sensor_type;location;lat;lon;timestamp;temperature;humidity
40848;DHT22;26570;50.962;5.340;2023-05-28T00:03:09;12.90;99.90
40848;DHT22;26570;50.962;5.340;2023-05-28T00:30:38;12.40;99.90
40848;DHT22;26570;50.962;5.340;2023-05-28T00:38:35;12.20;99.90
40848;DHT22;26570;50.962;5.340;2023-05-28T00:50:08;12.20;99.90
40848;DHT22;26570;50.962;5.340;2023-05-28T00:53:42;12.10;99.90
40848;DHT22;26570;50.962;5.340;2023-05-28T00:57:44;11.90;99.90
40848;DHT22;26570;50.962;5.340;2023-05-28T01:01:39;11.90;99.90
40848;DHT22;26570;50.962;5.340;2023-05-28T01:09:21;11.70;99.90
40848;DHT22;26570;50.962;5.340;2023-05-28T01:15:36;11.60;99.90
40848;DHT22;26570;50.962;5.340;2023-05-28T01:18:22;11.60;99.90
40848;DHT22;26570;50.962;5.340;2023-05-28T01:21:09;11.70;99.90
40848;DHT22;26570;50.962;5.340;2023-05-28T01:23:57;11.60;99.90
40848;DHT22;26570;50.962;5.340;2023-05-28T01:26:43;11.50;99.90
40848;DHT22;26570;50.962;5.340;2023-05-28T01:29:29;11.50;99.90
40848;DHT22;26570;50.962;5.340;2023-05-28T01:32:15;11.40;99.90
40848;DHT22;26570;50.962;5.340;2023-05-28T01:35:00;11.40;99.90
40848;DHT22;26570;50.962;5.340;2023-05-28T01:37:51;11.30;99.90
40848;DHT22;26570;50.962;5.340;2023-05-28T01:40:45;11.30;99.90
40848;DHT22;26570;50.962;5.340;2023-05-28T01:43:31;11.20;99.90
40848;DHT22;26570;50.962;5.340;2023-05-28T01:46:17;11.20;99.90
40848;DHT22;26570;50.962;5.340;2023-05-28T01:49:02;11.10;99.90
40848;DHT22;26570;50.962;5.340;2023-05-28T01:51:49;11.10;99.90
40848;DHT22;26570;50.962;5.340;2023-05-28T01:54:34;11.10;99.90
40848;DHT22;26570;50.962;5.340;2023-05-28T01:57:20;11.10;99.90
40848;DHT22;26570;50.962;5.340;2023-05-28T02:00:07;11.10;99.90
40848;DHT22;26570;50.962;5.340;2023-05-28T02:02:54;11.10;99.90
40848;DHT22;26570;50.962;5.340;2023-05-28T02:05:40;11.00;99.90
40848;DHT22;26570;50.962;5.340;2023-05-28T02:08:25;11.00;99.90
40848;DHT22;26570;50.962;5.340;2023-05-28T02:11:10;11.00;99.90
40848;DHT22;26570;50.962;5.340;2023-05-28T02:13:56;11.00;99.90
40848;DHT22;26570;50.962;5.340;2023-05-28T02:16:45;11.20;99.90
40848;DHT22;26570;50.962;5.340;2023-05-28T02:19:30;11.00;99.90
40848;DHT22;26570;50.962;5.340;2023-05-28T02:22:17;11.00;99.90
40848;DHT22;26570;50.962;5.340;2023-05-28T02:25:02;10.90;99.90
40848;DHT22;26570;50.962;5.340;2023-05-28T02:27:48;10.90;99.90
40848;DHT22;26570;50.962;5.340;2023-05-28T02:30:33;10.80;99.90
40848;DHT22;26570;50.962;5.340;2023-05-28T02:33:18;10.80;99.90
40848;DHT22;26570;50.962;5.340;2023-05-28T02:36:05;10.70;99.90
40848;DHT22;26570;50.962;5.340;2023-05-28T02:38:51;10.70;99.90
40848;DHT22;26570;50.962;5.340;2023-05-28T02:41:37;10.70;99.90
40848;DHT22;26570;50.962;5.340;2023-05-28T02:44:22;10.70;99.90
40848;DHT22;26570;50.962;5.340;2023-05-28T02:47:08;10.70;99.90
40848;DHT22;26570;50.962;5.340;2023-05-28T02:49:53;10.60;99.90
40848;DHT22;26570;50.962;5.340;2023-05-28T02:52:38;10.60;99.90
40848;DHT22;26570;50.962;5.340;2023-05-28T02:55:24;10.50;99.90
40848;DHT22;26570;50.962;5.340;2023-05-28T02:58:09;10.70;99.90
40848;DHT22;26570;50.962;5.340;2023-05-28T03:00:54;10.70;99.90
40848;DHT22;26570;50.962;5.340;2023-05-28T03:03:39;10.70;99.90
40848;DHT22;26570;50.962;5.340;2023-05-28T03:06:25;10.70;99.90
40848;DHT22;26570;50.962;5.340;2023-05-28T03:09:11;10.70;99.90
40848;DHT22;26570;50.962;5.340;2023-05-28T03:11:56;10.60;99.90
40848;DHT22;26570;50.962;5.340;2023-05-28T03:14:42;10.50;99.90
40848;DHT22;26570;50.962;5.340;2023-05-28T03:17:50;10.40;99.90
40848;DHT22;26570;50.962;5.340;2023-05-28T03:20:36;10.50;99.90
40848;DHT22;26570;50.962;5.340;2023-05-28T03:23:21;10.50;99.90
40848;DHT22;26570;50.962;5.340;2023-05-28T03:26:06;10.50;99.90
40848;DHT22;26570;50.962;5.340;2023-05-28T03:28:52;10.50;99.90
40848;DHT22;26570;50.962;5.340;2023-05-28T03:31:45;10.30;99.90
40848;DHT22;26570;50.962;5.340;2023-05-28T03:34:31;10.30;99.90
40848;DHT22;26570;50.962;5.340;2023-05-28T03:37:17;10.20;99.90
40848;DHT22;26570;50.962;5.340;2023-05-28T03:40:02;10.20;99.90
40848;DHT22;26570;50.962;5.340;2023-05-28T03:42:50;10.20;99.90
40848;DHT22;26570;50.962;5.340;2023-05-28T03:45:35;10.20;99.90
40848;DHT22;26570;50.962;5.340;2023-05-28T03:48:20;10.10;99.90
40848;DHT22;26570;50.962;5.340;2023-05-28T03:51:06;10.10;99.90
40848;DHT22;26570;50.962;5.340;2023-05-28T03:53:55;10.10;99.90
40848;DHT22;26570;50.962;5.340;2023-05-28T03:56:40;10.10;99.90
40848;DHT22;26570;50.962;5.340;2023-05-28T03:59:26;10.10;99.90
40848;DHT22;26570;50.962;5.340;2023-05-28T04:02:12;10.00;99.90
40848;DHT22;26570;50.962;5.340;2023-05-28T04:04:58;10.00;99.90
40848;DHT22;26570;50.962;5.340;2023-05-28T04:07:43;10.00;99.90
40848;DHT22;26570;50.962;5.340;2023-05-28T04:10:29;9.90;99.90
40848;DHT22;26570;50.962;5.340;2023-05-28T04:13:15;10.00;99.90
40848;DHT22;26570;50.962;5.340;2023-05-28T04:16:00;10.00;99.90
40848;DHT22;26570;50.962;5.340;2023-05-28T04:18:46;10.00;99.90
40848;DHT22;26570;50.962;5.340;2023-05-28T04:21:31;10.00;99.90
40848;DHT22;26570;50.962;5.340;2023-05-28T04:24:17;10.00;99.90
40848;DHT22;26570;50.962;5.340;2023-05-28T04:27:03;10.10;99.90
40848;DHT22;26570;50.962;5.340;2023-05-28T04:29:49;10.10;99.90
40848;DHT22;26570;50.962;5.340;2023-05-28T04:32:34;10.10;99.90
40848;DHT22;26570;50.962;5.340;2023-05-28T04:35:20;10.10;99.90
40848;DHT22;26570;50.962;5.340;2023-05-28T04:38:06;10.10;99.90
40848;DHT22;26570;50.962;5.340;2023-05-28T04:40:51;10.20;99.90
40848;DHT22;26570;50.962;5.340;2023-05-28T04:43:38;10.20;99.90
40848;DHT22;26570;50.962;5.340;2023-05-28T04:46:24;10.30;99.90
40848;DHT22;26570;50.962;5.340;2023-05-28T04:49:11;10.30;99.90
40848;DHT22;26570;50.962;5.340;2023-05-28T04:51:57;10.40;99.90
40848;DHT22;26570;50.962;5.340;2023-05-28T04:54:45;10.50;99.90
40848;DHT22;26570;50.962;5.340;2023-05-28T04:57:30;10.80;99.90
40848;DHT22;26570;50.962;5.340;2023-05-28T05:00:17;10.80;99.90
40848;DHT22;26570;50.962;5.340;2023-05-28T05:03:03;11.00;99.90
40848;DHT22;26570;50.962;5.340;2023-05-28T05:05:49;11.10;99.90
40848;DHT22;26570;50.962;5.340;2023-05-28T05:08:35;11.10;99.90
40848;DHT22;26570;50.962;5.340;2023-05-28T05:11:20;11.20;99.90
40848;DHT22;26570;50.962;5.340;2023-05-28T05:14:06;11.40;99.90
40848;DHT22;26570;50.962;5.340;2023-05-28T05:16:52;11.60;99.90
40848;DHT22;26570;50.962;5.340;2023-05-28T05:19:37;11.70;99.90
40848;DHT22;26570;50.962;5.340;2023-05-28T05:22:23;11.80;99.90
40848;DHT22;26570;50.962;5.340;2023-05-28T05:25:09;11.90;99.90
40848;DHT22;26570;50.962;5.340;2023-05-28T05:27:54;12.10;99.90
40848;DHT22;26570;50.962;5.340;2023-05-28T05:30:40;12.20;99.90
40848;DHT22;26570;50.962;5.340;2023-05-28T05:33:49;12.30;99.90
40848;DHT22;26570;50.962;5.340;2023-05-28T05:36:34;12.50;99.90
40848;DHT22;26570;50.962;5.340;2023-05-28T05:39:20;12.70;99.90
40848;DHT22;26570;50.962;5.340;2023-05-28T05:42:06;12.90;99.90
40848;DHT22;26570;50.962;5.340;2023-05-28T05:48:25;13.20;99.90
40848;DHT22;26570;50.962;5.340;2023-05-28T05:51:13;13.40;99.90
40848;DHT22;26570;50.962;5.340;2023-05-28T05:54:03;13.50;99.90
40848;DHT22;26570;50.962;5.340;2023-05-28T05:56:48;13.60;99.90
40848;DHT22;26570;50.962;5.340;2023-05-28T05:59:36;13.70;99.90
40848;DHT22;26570;50.962;5.340;2023-05-28T06:02:40;13.90;99.90
40848;DHT22;26570;50.962;5.340;2023-05-28T06:05:28;14.00;99.90
40848;DHT22;26570;50.962;5.340;2023-05-28T06:08:14;14.20;99.90
40848;DHT22;26570;50.962;5.340;2023-05-28T06:10:59;14.70;99.90
40848;DHT22;26570;50.962;5.340;2023-05-28T06:13:44;15.20;99.90
40848;DHT22;26570;50.962;5.340;2023-05-28T06:16:29;16.20;99.90
40848;DHT22;26570;50.962;5.340;2023-05-28T06:19:15;17.40;99.90
40848;DHT22;26570;50.962;5.340;2023-05-28T06:22:03;18.90;99.90
40848;DHT22;26570;50.962;5.340;2023-05-28T06:24:48;20.70;99.90
40848;DHT22;26570;50.962;5.340;2023-05-28T06:27:59;21.50;99.90
40848;DHT22;26570;50.962;5.340;2023-05-28T06:30:44;22.90;99.90
40848;DHT22;26570;50.962;5.340;2023-05-28T06:33:29;24.10;98.20
40848;DHT22;26570;50.962;5.340;2023-05-28T06:36:14;25.40;96.60
40848;DHT22;26570;50.962;5.340;2023-05-28T06:38:58;26.30;92.60
40848;DHT22;26570;50.962;5.340;2023-05-28T06:41:46;26.80;91.50
40848;DHT22;26570;50.962;5.340;2023-05-28T06:44:33;27.00;91.00
40848;DHT22;26570;50.962;5.340;2023-05-28T06:47:18;27.70;89.70
40848;DHT22;26570;50.962;5.340;2023-05-28T06:50:04;27.70;86.90
40848;DHT22;26570;50.962;5.340;2023-05-28T06:52:49;28.50;87.20
40848;DHT22;26570;50.962;5.340;2023-05-28T06:55:34;29.30;84.90
40848;DHT22;26570;50.962;5.340;2023-05-28T06:58:20;29.60;82.50
40848;DHT22;26570;50.962;5.340;2023-05-28T07:01:05;29.40;83.30
40848;DHT22;26570;50.962;5.340;2023-05-28T07:03:50;30.00;82.50
40848;DHT22;26570;50.962;5.340;2023-05-28T07:06:35;30.10;80.80
40848;DHT22;26570;50.962;5.340;2023-05-28T07:09:21;29.80;79.20
40848;DHT22;26570;50.962;5.340;2023-05-28T07:12:08;29.80;80.60
40848;DHT22;26570;50.962;5.340;2023-05-28T07:14:54;29.80;79.50
40848;DHT22;26570;50.962;5.340;2023-05-28T07:18:02;29.30;80.00
40848;DHT22;26570;50.962;5.340;2023-05-28T07:20:47;29.50;79.40
40848;DHT22;26570;50.962;5.340;2023-05-28T07:23:33;29.80;78.90
40848;DHT22;26570;50.962;5.340;2023-05-28T07:26:18;29.80;79.50
40848;DHT22;26570;50.962;5.340;2023-05-28T07:29:05;29.70;79.00
40848;DHT22;26570;50.962;5.340;2023-05-28T07:32:13;29.20;79.20
40848;DHT22;26570;50.962;5.340;2023-05-28T07:34:58;29.10;80.30
40848;DHT22;26570;50.962;5.340;2023-05-28T07:37:43;29.80;79.00
40848;DHT22;26570;50.962;5.340;2023-05-28T07:40:31;30.10;78.40
40848;DHT22;26570;50.962;5.340;2023-05-28T07:43:38;30.10;77.80
40848;DHT22;26570;50.962;5.340;2023-05-28T07:46:24;30.40;77.20
40848;DHT22;26570;50.962;5.340;2023-05-28T07:49:10;29.50;76.30
40848;DHT22;26570;50.962;5.340;2023-05-28T07:51:55;28.80;78.40
40848;DHT22;26570;50.962;5.340;2023-05-28T07:54:41;29.00;79.50
40848;DHT22;26570;50.962;5.340;2023-05-28T07:57:26;29.00;77.90
40848;DHT22;26570;50.962;5.340;2023-05-28T08:00:11;28.70;78.40
40848;DHT22;26570;50.962;5.340;2023-05-28T08:03:02;28.90;78.10
40848;DHT22;26570;50.962;5.340;2023-05-28T08:05:49;29.50;78.50
40848;DHT22;26570;50.962;5.340;2023-05-28T08:08:35;30.10;75.90
40848;DHT22;26570;50.962;5.340;2023-05-28T08:11:45;29.90;76.50
40848;DHT22;26570;50.962;5.340;2023-05-28T08:14:30;29.80;75.40
40848;DHT22;26570;50.962;5.340;2023-05-28T08:17:21;29.30;75.90
40848;DHT22;26570;50.962;5.340;2023-05-28T08:20:07;29.60;76.60
40848;DHT22;26570;50.962;5.340;2023-05-28T08:22:54;29.70;75.90
40848;DHT22;26570;50.962;5.340;2023-05-28T08:25:39;29.40;77.00
40848;DHT22;26570;50.962;5.340;2023-05-28T08:28:24;29.90;76.10
40848;DHT22;26570;50.962;5.340;2023-05-28T08:31:10;30.30;76.00
40848;DHT22;26570;50.962;5.340;2023-05-28T08:33:55;30.60;75.60
40848;DHT22;26570;50.962;5.340;2023-05-28T08:36:40;30.40;74.80
40848;DHT22;26570;50.962;5.340;2023-05-28T08:39:26;30.50;75.30
40848;DHT22;26570;50.962;5.340;2023-05-28T08:42:12;30.60;74.60
40848;DHT22;26570;50.962;5.340;2023-05-28T08:44:57;30.70;74.60
40848;DHT22;26570;50.962;5.340;2023-05-28T08:47:43;31.00;74.30
40848;DHT22;26570;50.962;5.340;2023-05-28T08:50:29;30.90;74.20
40848;DHT22;26570;50.962;5.340;2023-05-28T08:53:22;31.00;73.70
40848;DHT22;26570;50.962;5.340;2023-05-28T08:56:08;30.60;72.70
40848;DHT22;26570;50.962;5.340;2023-05-28T08:58:54;30.60;73.60
40848;DHT22;26570;50.962;5.340;2023-05-28T09:02:03;30.70;72.90
40848;DHT22;26570;50.962;5.340;2023-05-28T09:04:48;30.90;72.60
40848;DHT22;26570;50.962;5.340;2023-05-28T09:07:33;30.90;73.40
40848;DHT22;26570;50.962;5.340;2023-05-28T09:10:19;31.20;73.10
40848;DHT22;26570;50.962;5.340;2023-05-28T09:13:04;31.10;72.30
40848;DHT22;26570;50.962;5.340;2023-05-28T09:15:53;31.30;71.40
40848;DHT22;26570;50.962;5.340;2023-05-28T09:18:38;31.30;72.80
40848;DHT22;26570;50.962;5.340;2023-05-28T09:21:24;31.10;71.80
40848;DHT22;26570;50.962;5.340;2023-05-28T09:24:09;31.20;72.30
40848;DHT22;26570;50.962;5.340;2023-05-28T09:26:55;30.80;72.90
40848;DHT22;26570;50.962;5.340;2023-05-28T09:29:41;30.70;72.00
40848;DHT22;26570;50.962;5.340;2023-05-28T09:32:26;30.70;71.10
40848;DHT22;26570;50.962;5.340;2023-05-28T09:35:11;30.60;72.50
40848;DHT22;26570;50.962;5.340;2023-05-28T09:38:04;30.60;72.10
40848;DHT22;26570;50.962;5.340;2023-05-28T09:40:55;30.90;72.60
40848;DHT22;26570;50.962;5.340;2023-05-28T09:43:40;31.30;73.20
40848;DHT22;26570;50.962;5.340;2023-05-28T09:46:32;31.40;73.50
40848;DHT22;26570;50.962;5.340;2023-05-28T09:49:18;31.20;72.00
40848;DHT22;26570;50.962;5.340;2023-05-28T09:52:04;30.60;71.60
40848;DHT22;26570;50.962;5.340;2023-05-28T09:54:53;30.60;72.10
40848;DHT22;26570;50.962;5.340;2023-05-28T09:57:44;30.40;71.20
40848;DHT22;26570;50.962;5.340;2023-05-28T10:00:36;30.10;72.40
40848;DHT22;26570;50.962;5.340;2023-05-28T10:03:26;30.10;70.90
40848;DHT22;26570;50.962;5.340;2023-05-28T10:06:17;30.00;69.80
40848;DHT22;26570;50.962;5.340;2023-05-28T10:09:26;29.60;72.20
40848;DHT22;26570;50.962;5.340;2023-05-28T10:12:17;29.60;72.50
40848;DHT22;26570;50.962;5.340;2023-05-28T10:15:04;29.40;72.50
40848;DHT22;26570;50.962;5.340;2023-05-28T10:17:49;29.40;73.70
40848;DHT22;26570;50.962;5.340;2023-05-28T10:20:35;29.50;70.30
40848;DHT22;26570;50.962;5.340;2023-05-28T10:23:22;29.40;71.80
40848;DHT22;26570;50.962;5.340;2023-05-28T10:26:08;29.50;71.80
40848;DHT22;26570;50.962;5.340;2023-05-28T10:28:55;29.70;72.50
40848;DHT22;26570;50.962;5.340;2023-05-28T10:31:40;29.90;72.80
40848;DHT22;26570;50.962;5.340;2023-05-28T10:34:32;29.50;71.40
40848;DHT22;26570;50.962;5.340;2023-05-28T10:37:22;29.70;71.70
40848;DHT22;26570;50.962;5.340;2023-05-28T10:40:22;29.80;71.50
40848;DHT22;26570;50.962;5.340;2023-05-28T10:43:45;30.00;69.70
40848;DHT22;26570;50.962;5.340;2023-05-28T10:46:38;30.00;70.50
40848;DHT22;26570;50.962;5.340;2023-05-28T10:49:24;29.90;70.50
40848;DHT22;26570;50.962;5.340;2023-05-28T10:52:21;29.70;70.50
40848;DHT22;26570;50.962;5.340;2023-05-28T10:55:29;29.80;70.70
40848;DHT22;26570;50.962;5.340;2023-05-28T11:04:03;30.10;69.30
40848;DHT22;26570;50.962;5.340;2023-05-28T11:06:49;30.30;69.30
40848;DHT22;26570;50.962;5.340;2023-05-28T11:09:58;30.40;69.90
40848;DHT22;26570;50.962;5.340;2023-05-28T11:12:44;30.60;69.70
40848;DHT22;26570;50.962;5.340;2023-05-28T11:15:32;30.60;70.00
40848;DHT22;26570;50.962;5.340;2023-05-28T11:18:17;30.60;70.50
40848;DHT22;26570;50.962;5.340;2023-05-28T11:21:07;30.60;69.60
40848;DHT22;26570;50.962;5.340;2023-05-28T11:24:16;30.70;68.60
40848;DHT22;26570;50.962;5.340;2023-05-28T11:27:23;30.50;68.20
40848;DHT22;26570;50.962;5.340;2023-05-28T11:32:54;30.50;69.00
40848;DHT22;26570;50.962;5.340;2023-05-28T11:35:41;30.70;69.00
40848;DHT22;26570;50.962;5.340;2023-05-28T11:38:27;30.90;68.60
40848;DHT22;26570;50.962;5.340;2023-05-28T11:41:13;30.70;67.70
40848;DHT22;26570;50.962;5.340;2023-05-28T11:44:01;30.50;69.30
40848;DHT22;26570;50.962;5.340;2023-05-28T11:46:45;30.70;68.20
40848;DHT22;26570;50.962;5.340;2023-05-28T11:49:36;31.10;67.90
40848;DHT22;26570;50.962;5.340;2023-05-28T11:52:24;31.00;67.80
40848;DHT22;26570;50.962;5.340;2023-05-28T11:55:09;30.90;67.20
40848;DHT22;26570;50.962;5.340;2023-05-28T11:57:55;30.70;67.30
40848;DHT22;26570;50.962;5.340;2023-05-28T12:00:39;30.90;67.00
40848;DHT22;26570;50.962;5.340;2023-05-28T12:03:27;31.00;66.80
40848;DHT22;26570;50.962;5.340;2023-05-28T12:06:12;30.70;66.80
40848;DHT22;26570;50.962;5.340;2023-05-28T12:09:04;30.20;66.70
40848;DHT22;26570;50.962;5.340;2023-05-28T12:12:15;30.40;67.20
40848;DHT22;26570;50.962;5.340;2023-05-28T12:15:04;30.70;64.30
40848;DHT22;26570;50.962;5.340;2023-05-28T12:17:57;30.70;66.50
40848;DHT22;26570;50.962;5.340;2023-05-28T12:20:43;30.70;66.80
40848;DHT22;26570;50.962;5.340;2023-05-28T12:23:27;31.00;67.00
40848;DHT22;26570;50.962;5.340;2023-05-28T12:26:14;30.90;66.20
40848;DHT22;26570;50.962;5.340;2023-05-28T12:29:01;30.80;66.00
40848;DHT22;26570;50.962;5.340;2023-05-28T12:31:46;31.10;66.50
40848;DHT22;26570;50.962;5.340;2023-05-28T12:34:30;31.30;67.00
40848;DHT22;26570;50.962;5.340;2023-05-28T12:37:15;31.40;65.60
40848;DHT22;26570;50.962;5.340;2023-05-28T12:40:00;31.30;66.50
40848;DHT22;26570;50.962;5.340;2023-05-28T12:42:44;31.60;65.60
40848;DHT22;26570;50.962;5.340;2023-05-28T12:45:30;31.60;65.20
40848;DHT22;26570;50.962;5.340;2023-05-28T12:48:15;31.50;64.70
40848;DHT22;26570;50.962;5.340;2023-05-28T12:51:00;31.50;65.50
40848;DHT22;26570;50.962;5.340;2023-05-28T12:53:45;31.50;64.40
40848;DHT22;26570;50.962;5.340;2023-05-28T12:56:30;31.30;65.70
40848;DHT22;26570;50.962;5.340;2023-05-28T12:59:25;31.60;65.50
40848;DHT22;26570;50.962;5.340;2023-05-28T13:02:10;31.30;65.20
40848;DHT22;26570;50.962;5.340;2023-05-28T13:04:55;31.10;66.10
40848;DHT22;26570;50.962;5.340;2023-05-28T13:07:40;31.40;66.20
40848;DHT22;26570;50.962;5.340;2023-05-28T13:10:25;30.90;65.50
40848;DHT22;26570;50.962;5.340;2023-05-28T13:13:09;31.00;66.00
40848;DHT22;26570;50.962;5.340;2023-05-28T13:15:54;30.90;64.50
40848;DHT22;26570;50.962;5.340;2023-05-28T13:18:39;30.70;64.40
40848;DHT22;26570;50.962;5.340;2023-05-28T13:21:24;30.60;66.30
40848;DHT22;26570;50.962;5.340;2023-05-28T13:24:08;30.80;65.00
40848;DHT22;26570;50.962;5.340;2023-05-28T13:26:53;30.50;66.80
40848;DHT22;26570;50.962;5.340;2023-05-28T13:29:37;30.60;65.90
40848;DHT22;26570;50.962;5.340;2023-05-28T13:32:22;30.70;65.70
40848;DHT22;26570;50.962;5.340;2023-05-28T13:35:07;30.40;66.80
40848;DHT22;26570;50.962;5.340;2023-05-28T13:37:54;30.30;66.40
40848;DHT22;26570;50.962;5.340;2023-05-28T13:40:40;30.40;67.10
40848;DHT22;26570;50.962;5.340;2023-05-28T13:43:25;30.70;69.00
40848;DHT22;26570;50.962;5.340;2023-05-28T13:46:10;30.90;67.00
40848;DHT22;26570;50.962;5.340;2023-05-28T13:48:55;30.80;66.70
40848;DHT22;26570;50.962;5.340;2023-05-28T13:51:40;30.80;65.90
40848;DHT22;26570;50.962;5.340;2023-05-28T13:54:26;30.70;66.30
40848;DHT22;26570;50.962;5.340;2023-05-28T13:57:10;30.60;65.60
40848;DHT22;26570;50.962;5.340;2023-05-28T13:59:55;30.40;65.30
40848;DHT22;26570;50.962;5.340;2023-05-28T14:02:40;30.20;64.60
40848;DHT22;26570;50.962;5.340;2023-05-28T14:05:26;29.80;64.70
40848;DHT22;26570;50.962;5.340;2023-05-28T14:08:11;29.70;65.70
40848;DHT22;26570;50.962;5.340;2023-05-28T14:10:55;29.70;65.00
40848;DHT22;26570;50.962;5.340;2023-05-28T14:13:40;29.80;63.60
40848;DHT22;26570;50.962;5.340;2023-05-28T14:16:25;30.10;65.10
40848;DHT22;26570;50.962;5.340;2023-05-28T14:19:09;30.30;64.30
40848;DHT22;26570;50.962;5.340;2023-05-28T14:21:54;30.30;64.00
40848;DHT22;26570;50.962;5.340;2023-05-28T14:24:39;30.20;63.80
40848;DHT22;26570;50.962;5.340;2023-05-28T14:27:24;30.40;63.60
40848;DHT22;26570;50.962;5.340;2023-05-28T14:30:10;30.50;63.70
40848;DHT22;26570;50.962;5.340;2023-05-28T14:32:55;30.30;64.30
40848;DHT22;26570;50.962;5.340;2023-05-28T14:35:39;30.70;65.20
40848;DHT22;26570;50.962;5.340;2023-05-28T14:38:25;30.90;64.70
40848;DHT22;26570;50.962;5.340;2023-05-28T14:41:09;31.20;63.80
40848;DHT22;26570;50.962;5.340;2023-05-28T14:43:54;31.00;63.00
40848;DHT22;26570;50.962;5.340;2023-05-28T14:46:39;31.10;64.40
40848;DHT22;26570;50.962;5.340;2023-05-28T14:49:24;31.00;63.60
40848;DHT22;26570;50.962;5.340;2023-05-28T14:52:30;30.90;63.10
40848;DHT22;26570;50.962;5.340;2023-05-28T14:55:15;30.40;64.00
40848;DHT22;26570;50.962;5.340;2023-05-28T14:57:59;30.30;66.00
40848;DHT22;26570;50.962;5.340;2023-05-28T15:00:44;30.10;65.00
40848;DHT22;26570;50.962;5.340;2023-05-28T15:03:30;30.10;65.10
40848;DHT22;26570;50.962;5.340;2023-05-28T15:06:15;30.10;65.50
40848;DHT22;26570;50.962;5.340;2023-05-28T15:09:00;29.70;66.00
40848;DHT22;26570;50.962;5.340;2023-05-28T15:11:44;29.50;65.60
40848;DHT22;26570;50.962;5.340;2023-05-28T15:14:30;29.70;65.20
40848;DHT22;26570;50.962;5.340;2023-05-28T15:17:15;29.40;64.50
40848;DHT22;26570;50.962;5.340;2023-05-28T15:20:00;29.20;64.20
40848;DHT22;26570;50.962;5.340;2023-05-28T15:22:44;29.20;66.50
40848;DHT22;26570;50.962;5.340;2023-05-28T15:25:29;29.20;66.70
40848;DHT22;26570;50.962;5.340;2023-05-28T15:28:14;29.10;66.30
40848;DHT22;26570;50.962;5.340;2023-05-28T15:30:59;28.80;66.90
40848;DHT22;26570;50.962;5.340;2023-05-28T15:33:47;28.80;67.20
40848;DHT22;26570;50.962;5.340;2023-05-28T15:36:32;28.90;69.20
40848;DHT22;26570;50.962;5.340;2023-05-28T15:39:19;28.90;69.60
40848;DHT22;26570;50.962;5.340;2023-05-28T15:42:05;28.60;68.60
40848;DHT22;26570;50.962;5.340;2023-05-28T15:44:53;28.90;68.80
40848;DHT22;26570;50.962;5.340;2023-05-28T15:47:37;29.00;66.70
40848;DHT22;26570;50.962;5.340;2023-05-28T15:50:22;29.00;65.90
40848;DHT22;26570;50.962;5.340;2023-05-28T15:53:07;28.90;66.70
40848;DHT22;26570;50.962;5.340;2023-05-28T15:55:52;28.70;67.60
40848;DHT22;26570;50.962;5.340;2023-05-28T15:58:37;28.60;69.50
40848;DHT22;26570;50.962;5.340;2023-05-28T16:01:24;29.00;70.40
40848;DHT22;26570;50.962;5.340;2023-05-28T16:04:09;29.30;68.70
40848;DHT22;26570;50.962;5.340;2023-05-28T16:06:54;29.50;68.40
40848;DHT22;26570;50.962;5.340;2023-05-28T16:09:39;29.30;69.30
40848;DHT22;26570;50.962;5.340;2023-05-28T16:12:29;29.40;70.10
40848;DHT22;26570;50.962;5.340;2023-05-28T16:15:13;29.30;69.50
40848;DHT22;26570;50.962;5.340;2023-05-28T16:18:03;29.30;69.50
40848;DHT22;26570;50.962;5.340;2023-05-28T16:20:49;29.30;69.80
40848;DHT22;26570;50.962;5.340;2023-05-28T16:23:34;29.50;69.50
40848;DHT22;26570;50.962;5.340;2023-05-28T16:26:19;29.40;68.80
40848;DHT22;26570;50.962;5.340;2023-05-28T16:29:05;29.20;68.50
40848;DHT22;26570;50.962;5.340;2023-05-28T16:31:50;29.10;67.50
40848;DHT22;26570;50.962;5.340;2023-05-28T16:34:37;29.00;68.90
40848;DHT22;26570;50.962;5.340;2023-05-28T16:37:22;29.10;69.00
40848;DHT22;26570;50.962;5.340;2023-05-28T16:40:08;29.00;69.20
40848;DHT22;26570;50.962;5.340;2023-05-28T16:42:53;29.10;69.00
40848;DHT22;26570;50.962;5.340;2023-05-28T16:45:44;28.90;68.50
40848;DHT22;26570;50.962;5.340;2023-05-28T16:48:28;28.70;69.20
40848;DHT22;26570;50.962;5.340;2023-05-28T16:51:14;28.60;69.30
40848;DHT22;26570;50.962;5.340;2023-05-28T16:54:01;28.40;69.80
40848;DHT22;26570;50.962;5.340;2023-05-28T16:56:45;28.30;71.00
40848;DHT22;26570;50.962;5.340;2023-05-28T16:59:30;28.50;70.10
40848;DHT22;26570;50.962;5.340;2023-05-28T17:02:16;28.50;71.00
40848;DHT22;26570;50.962;5.340;2023-05-28T17:05:01;28.40;70.70
40848;DHT22;26570;50.962;5.340;2023-05-28T17:07:46;28.10;70.80
40848;DHT22;26570;50.962;5.340;2023-05-28T17:10:32;27.90;71.60
40848;DHT22;26570;50.962;5.340;2023-05-28T17:13:17;27.70;71.10
40848;DHT22;26570;50.962;5.340;2023-05-28T17:16:01;27.60;72.30
40848;DHT22;26570;50.962;5.340;2023-05-28T17:18:47;27.70;72.00
40848;DHT22;26570;50.962;5.340;2023-05-28T17:21:32;27.60;71.90
40848;DHT22;26570;50.962;5.340;2023-05-28T17:24:17;27.60;71.40
40848;DHT22;26570;50.962;5.340;2023-05-28T17:27:02;27.40;72.20
40848;DHT22;26570;50.962;5.340;2023-05-28T17:29:47;27.40;71.60
40848;DHT22;26570;50.962;5.340;2023-05-28T17:32:32;27.20;71.30
40848;DHT22;26570;50.962;5.340;2023-05-28T17:35:17;26.70;72.40
40848;DHT22;26570;50.962;5.340;2023-05-28T17:38:05;26.60;72.90
40848;DHT22;26570;50.962;5.340;2023-05-28T17:40:51;26.50;73.50
40848;DHT22;26570;50.962;5.340;2023-05-28T17:43:36;26.40;72.70
40848;DHT22;26570;50.962;5.340;2023-05-28T17:46:34;26.30;72.70
40848;DHT22;26570;50.962;5.340;2023-05-28T17:49:19;26.30;73.20
40848;DHT22;26570;50.962;5.340;2023-05-28T17:52:05;26.10;73.00
40848;DHT22;26570;50.962;5.340;2023-05-28T17:54:50;26.10;73.30
40848;DHT22;26570;50.962;5.340;2023-05-28T17:57:35;25.90;74.10
40848;DHT22;26570;50.962;5.340;2023-05-28T18:00:22;25.90;74.70
40848;DHT22;26570;50.962;5.340;2023-05-28T18:03:06;25.60;75.20
40848;DHT22;26570;50.962;5.340;2023-05-28T18:05:51;25.60;75.50
40848;DHT22;26570;50.962;5.340;2023-05-28T18:08:36;25.50;76.20
40848;DHT22;26570;50.962;5.340;2023-05-28T18:11:21;25.60;76.70
40848;DHT22;26570;50.962;5.340;2023-05-28T18:14:06;25.60;76.10
40848;DHT22;26570;50.962;5.340;2023-05-28T18:16:52;25.30;76.40
40848;DHT22;26570;50.962;5.340;2023-05-28T18:23:17;24.60;78.50
40848;DHT22;26570;50.962;5.340;2023-05-28T18:26:02;24.60;78.90
40848;DHT22;26570;50.962;5.340;2023-05-28T18:28:52;24.60;78.40
40848;DHT22;26570;50.962;5.340;2023-05-28T18:31:36;24.30;78.70
40848;DHT22;26570;50.962;5.340;2023-05-28T18:34:21;24.30;80.50
40848;DHT22;26570;50.962;5.340;2023-05-28T18:37:28;24.10;79.80
40848;DHT22;26570;50.962;5.340;2023-05-28T18:40:13;24.10;81.30
40848;DHT22;26570;50.962;5.340;2023-05-28T18:43:00;24.30;79.90